Tuesday, December 11, 2018, 2:22 AM GMT
Back to Local

CWNQ, Nicolet Automatic Weather Reporting System

Location: , , Canada Lat: 46.217
Local Time: 2:22 AM GMT ( 2:22 GMT) Lon: -72.65
Time Zone: GMT Elev: 32 ft

Show me the last for .
Show Coded

Time T Td Feel RH Dir Speed Gust Alt SLP Vis Weather Sky Remarks
2018-12-11 02:00 6 1 - 77 120° 1 - - 30.21 0 None
2018-12-11 01:00 7 0 - 71 90° 2 - - 30.22 0 None
2018-12-11 00:00 17 5 11 58 320° 3 - - 30.23 0 None
2018-12-10 23:00 17 4 10 56 310° 5 - - 30.23 0 None
2018-12-10 22:00 17 5 9 57 280° 6 - - 30.22 0 None
2018-12-10 21:00 17 4 9 55 300° 6 - - 30.21 0 None
2018-12-10 20:00 17 4 9 56 290° 6 - - 30.21 0 None
2018-12-10 19:00 17 4 7 55 300° 7 - - 30.20 0 None
2018-12-10 18:00 17 3 8 52 310° 7 - - 30.20 0 None
2018-12-10 17:00 18 3 8 51 330° 7 - - 30.21 0 None
2018-12-10 16:00 18 3 7 51 340° 8 - - 30.21 0 None
2018-12-10 15:00 16 4 7 58 330° 7 - - 30.22 0 None
2018-12-10 14:00 14 4 5 64 330° 6 - - 30.21 0 None
2018-12-10 13:00 13 4 3 69 320° 6 - - 30.18 0 None
2018-12-10 12:00 15 5 7 63 330° 5 - - 30.17 0 None
2018-12-10 11:00 14 5 6 66 330° 5 - - 30.16 0 None
2018-12-10 10:00 15 5 7 64 320° 6 - - 30.15 0 None
2018-12-10 09:00 16 6 11 63 330° 3 - - 30.15 0 None
2018-12-10 08:00 16 5 11 61 340° 3 - - 30.16 0 None
2018-12-10 07:00 18 6 8 59 340° 7 - - 30.14 0 None
2018-12-10 06:00 18 7 3 59 350° 10 17 - 30.11 0 None
2018-12-10 05:00 21 10 12 60 330° 8 - - 30.11 0 None
2018-12-10 04:00 25 16 16 68 330° 8 - - 30.09 0 None
2018-12-10 03:00 27 18 22 67 290° 5 - - 30.06 0 None

Support USWX by starting your Amazon purchase here.